createdAt,value
2023-05-05T10:23:03.682Z,94917.00
2023-05-05T10:24:02.154Z,94917.00
2023-05-05T10:25:02.105Z,94915.00
2023-05-05T10:26:02.153Z,94917.00
2023-05-05T10:27:02.145Z,94919.00
2023-05-05T10:28:03.926Z,94914.00
2023-05-05T10:29:02.101Z,94914.00
2023-05-05T10:30:02.086Z,94915.00
2023-05-05T10:31:02.236Z,94912.00
2023-05-05T10:32:10.261Z,94912.00
2023-05-05T10:33:22.854Z,94908.00
2023-05-05T10:34:03.367Z,94906.00
2023-05-05T10:35:02.114Z,94908.00
2023-05-05T10:36:02.054Z,94906.00
2023-05-05T10:37:02.063Z,94906.00
2023-05-05T10:38:02.073Z,94904.00
2023-05-05T10:39:02.089Z,94894.00
2023-05-05T10:40:02.022Z,94890.00
2023-05-05T10:41:02.193Z,94890.00
2023-05-05T10:42:02.071Z,94886.00
2023-05-05T10:43:02.048Z,94888.00
2023-05-05T10:44:04.240Z,94884.00
2023-05-05T10:45:02.159Z,94884.00
2023-05-05T10:46:02.204Z,94880.00
2023-05-05T10:47:02.222Z,94882.00
2023-05-05T10:48:02.270Z,94878.00
2023-05-05T10:49:02.223Z,94876.00
2023-05-05T10:50:02.209Z,94868.00
2023-05-05T10:51:02.187Z,94868.00
2023-05-05T10:52:02.251Z,94864.00
2023-05-05T10:53:02.273Z,94864.00
2023-05-05T10:54:02.339Z,94861.00
2023-05-05T10:55:02.345Z,94857.00
2023-05-05T10:56:02.265Z,94853.00
2023-05-05T10:57:02.282Z,94851.00
2023-05-05T10:58:02.255Z,94853.00
2023-05-05T10:59:02.241Z,94849.00
2023-05-05T11:00:02.265Z,94853.00
2023-05-05T11:01:02.261Z,94847.00
2023-05-05T11:02:02.260Z,94849.00
2023-05-05T11:03:02.287Z,94847.00
2023-05-05T11:04:02.329Z,94843.00
2023-05-05T11:05:02.292Z,94843.00
2023-05-05T11:06:02.330Z,94837.00
2023-05-05T11:07:02.437Z,94839.00
2023-05-05T11:08:02.450Z,94833.00
2023-05-05T11:09:02.512Z,94833.00
2023-05-05T11:10:02.583Z,94829.00
2023-05-05T11:11:02.667Z,94827.00
2023-05-05T11:12:02.711Z,94827.00
2023-05-05T11:13:02.937Z,94827.00
2023-05-05T11:14:02.755Z,94823.00
2023-05-05T11:15:02.857Z,94819.00
2023-05-05T11:16:02.867Z,94815.00
2023-05-05T11:17:02.942Z,94815.00
2023-05-05T11:18:06.786Z,94815.00
2023-05-05T11:19:02.930Z,94810.00
2023-05-05T11:20:02.942Z,94810.00
2023-05-05T11:21:03.372Z,94806.00
2023-05-05T11:22:02.969Z,94806.00
2023-05-05T11:23:02.951Z,94804.00
2023-05-05T11:24:02.939Z,94804.00
2023-05-05T11:25:02.921Z,94798.00
2023-05-05T11:26:02.946Z,94794.00
2023-05-05T11:27:02.990Z,94794.00
2023-05-05T11:28:02.898Z,94792.00
2023-05-05T11:29:02.911Z,94794.00
2023-05-05T11:30:02.920Z,94792.00
2023-05-05T11:31:02.935Z,94790.00
2023-05-05T11:32:02.872Z,94792.00
2023-05-05T11:33:02.909Z,94786.00
2023-05-05T11:34:03.500Z,94784.00
2023-05-05T11:35:02.906Z,94784.00
2023-05-05T11:36:05.823Z,94786.00
2023-05-05T11:37:02.965Z,94784.00
2023-05-05T11:38:02.895Z,94784.00
2023-05-05T11:39:02.934Z,94780.00
2023-05-05T11:40:02.940Z,94780.00
2023-05-05T11:41:02.870Z,94778.00
2023-05-05T11:42:08.092Z,94776.00
2023-05-05T11:43:03.869Z,94774.00
2023-05-05T11:44:02.917Z,94772.00
2023-05-05T11:45:02.905Z,94764.00
2023-05-05T11:46:02.941Z,94762.00
2023-05-05T11:47:02.893Z,94764.00
2023-05-05T11:48:02.933Z,94760.00
2023-05-05T11:49:02.876Z,94760.00
2023-05-05T11:50:02.892Z,94759.00
2023-05-05T11:51:02.840Z,94759.00
2023-05-05T11:52:02.852Z,94759.00
2023-05-05T11:53:02.868Z,94751.00
2023-05-05T11:54:02.869Z,94759.00
2023-05-05T11:55:02.832Z,94753.00
2023-05-05T11:56:02.834Z,94751.00
2023-05-05T11:57:02.836Z,94751.00
2023-05-05T11:58:02.855Z,94751.00
2023-05-05T11:59:02.972Z,94747.00
2023-05-05T12:00:02.908Z,94747.00
2023-05-05T12:01:02.928Z,94747.00
2023-05-05T12:02:02.962Z,94749.00
2023-05-05T12:03:03.189Z,94745.00
2023-05-05T12:04:03.221Z,94747.00
2023-05-05T12:05:02.989Z,94743.00
2023-05-05T12:06:02.999Z,94741.00
2023-05-05T12:07:03.002Z,94741.00
2023-05-05T12:08:03.036Z,94739.00
2023-05-05T12:09:03.030Z,94737.00
2023-05-05T12:10:03.048Z,94735.00
2023-05-05T12:11:03.078Z,94735.00
2023-05-05T12:12:03.114Z,94735.00
2023-05-05T12:13:03.149Z,94739.00
2023-05-05T12:14:03.164Z,94737.00
2023-05-05T12:15:03.227Z,94733.00
2023-05-05T12:16:03.191Z,94733.00
2023-05-05T12:17:03.177Z,94733.00
2023-05-05T12:18:03.532Z,94733.00
2023-05-05T12:19:03.243Z,94739.00
2023-05-05T12:20:03.268Z,94731.00
2023-05-05T12:21:03.253Z,94727.00
2023-05-05T12:22:03.261Z,94727.00
2023-05-05T12:23:03.318Z,94729.00
2023-05-05T12:24:03.285Z,94725.00
2023-05-05T12:25:03.334Z,94721.00
2023-05-05T12:26:03.337Z,94723.00
2023-05-05T12:27:03.345Z,94719.00
2023-05-05T12:28:03.402Z,94715.00
2023-05-05T12:29:03.418Z,94715.00
2023-05-05T12:30:03.462Z,94713.00
2023-05-05T12:31:03.572Z,94713.00
2023-05-05T12:32:03.506Z,94721.00
2023-05-05T12:33:03.516Z,94712.00
2023-05-05T12:34:03.499Z,94710.00
2023-05-05T12:35:03.562Z,94710.00
2023-05-05T12:36:03.575Z,94702.00
2023-05-05T12:37:03.593Z,94704.00
2023-05-05T12:38:03.631Z,94698.00
2023-05-05T12:39:03.632Z,94698.00
2023-05-05T12:40:03.639Z,94698.00
2023-05-05T12:41:03.658Z,94696.00
2023-05-05T12:42:03.703Z,94694.00
2023-05-05T12:43:03.700Z,94692.00
2023-05-05T12:44:03.729Z,94690.00
2023-05-05T12:45:03.791Z,94688.00
2023-05-05T12:46:03.842Z,94698.00
2023-05-05T12:47:03.852Z,94684.00
2023-05-05T12:48:03.938Z,94686.00
2023-05-05T12:49:03.864Z,94684.00
2023-05-05T12:50:03.875Z,94682.00
2023-05-05T12:51:03.886Z,94682.00
2023-05-05T12:52:03.930Z,94686.00
2023-05-05T12:53:03.942Z,94686.00
2023-05-05T12:54:03.965Z,94688.00
2023-05-05T12:55:03.948Z,94686.00
2023-05-05T12:56:03.959Z,94684.00
2023-05-05T12:57:03.977Z,94682.00
2023-05-05T12:58:03.965Z,94678.00
2023-05-05T12:59:03.983Z,94680.00
2023-05-05T13:00:03.987Z,94680.00
2023-05-05T13:01:04.045Z,94676.00
2023-05-05T13:02:04.078Z,94670.00
2023-05-05T13:03:04.132Z,94668.00
2023-05-05T13:04:04.026Z,94668.00
2023-05-05T13:05:04.034Z,94666.00
2023-05-05T13:06:04.064Z,94662.00
2023-05-05T13:07:04.081Z,94662.00
2023-05-05T13:08:04.073Z,94662.00
2023-05-05T13:09:04.104Z,94655.00
2023-05-05T13:10:04.159Z,94657.00
2023-05-05T13:11:04.103Z,94657.00
2023-05-05T13:12:04.112Z,94657.00
2023-05-05T13:13:04.165Z,94655.00
2023-05-05T13:14:04.195Z,94653.00
2023-05-05T13:15:04.233Z,94649.00
2023-05-05T13:16:04.332Z,94643.00
2023-05-05T13:17:04.315Z,94645.00
2023-05-05T13:18:04.360Z,94641.00
2023-05-05T13:19:04.529Z,94643.00
2023-05-05T13:20:04.372Z,94637.00
2023-05-05T13:21:04.451Z,94637.00
2023-05-05T13:22:04.487Z,94633.00
2023-05-05T13:23:04.539Z,94629.00
2023-05-05T13:24:21.491Z,94631.00
2023-05-05T13:25:05.536Z,94625.00
2023-05-05T13:26:04.617Z,94625.00
2023-05-05T13:27:04.568Z,94627.00
2023-05-05T13:28:04.515Z,94623.00
2023-05-05T13:29:04.536Z,94619.00
2023-05-05T13:30:04.516Z,94619.00
2023-05-05T13:31:04.582Z,94619.00
2023-05-05T13:32:04.617Z,94608.00
2023-05-05T13:33:04.996Z,94611.00
2023-05-05T13:34:04.674Z,94609.00
2023-05-05T13:35:04.723Z,94606.00
2023-05-05T13:36:04.788Z,94604.00
2023-05-05T13:37:04.771Z,94598.00
2023-05-05T13:38:04.804Z,94598.00
2023-05-05T13:39:04.881Z,94596.00
2023-05-05T13:40:04.948Z,94594.00
2023-05-05T13:41:04.999Z,94596.00
2023-05-05T13:42:05.130Z,94588.00
2023-05-05T13:43:05.098Z,94590.00
2023-05-05T13:44:05.142Z,94588.00
2023-05-05T13:45:05.223Z,94588.00
2023-05-05T13:46:18.740Z,94588.00
2023-05-05T13:47:06.284Z,94588.00
2023-05-05T13:48:05.261Z,94578.00
2023-05-05T13:49:05.247Z,94576.00
2023-05-05T13:50:05.220Z,94570.00
2023-05-05T13:51:05.366Z,94570.00
2023-05-05T13:52:05.196Z,94562.00
2023-05-05T13:53:05.219Z,94564.00
2023-05-05T13:54:05.182Z,94564.00
2023-05-05T13:55:05.172Z,94560.00
2023-05-05T13:56:05.195Z,94562.00
2023-05-05T13:57:05.232Z,94558.00
2023-05-05T13:58:05.299Z,94558.00
2023-05-05T13:59:05.364Z,94558.00
2023-05-05T14:00:05.455Z,94557.00
2023-05-05T14:01:05.484Z,94558.00
2023-05-05T14:02:05.522Z,94555.00
2023-05-05T14:03:05.634Z,94553.00
2023-05-05T14:04:06.038Z,94551.00
2023-05-05T14:05:05.795Z,94549.00
2023-05-05T14:06:05.764Z,94549.00
2023-05-05T14:07:05.817Z,94545.00
2023-05-05T14:08:05.864Z,94541.00
2023-05-05T14:09:06.425Z,94545.00
2023-05-05T14:10:05.991Z,94541.00
2023-05-05T14:11:06.066Z,94537.00
2023-05-05T14:12:06.107Z,94535.00
2023-05-05T14:13:06.261Z,94537.00
2023-05-05T14:14:06.226Z,94535.00
2023-05-05T14:15:06.330Z,94537.00
2023-05-05T14:16:06.338Z,94531.00
2023-05-05T14:17:06.420Z,94529.00
2023-05-05T14:18:06.430Z,94531.00
2023-05-05T14:19:06.504Z,94527.00
2023-05-05T14:20:06.525Z,94531.00
2023-05-05T14:21:06.574Z,94529.00
2023-05-05T14:22:06.646Z,94527.00
2023-05-05T14:23:06.757Z,94525.00
2023-05-05T14:24:06.801Z,94529.00
2023-05-05T14:25:07.080Z,94521.00
2023-05-05T14:26:06.953Z,94529.00
2023-05-05T14:27:06.970Z,94527.00
2023-05-05T14:28:06.984Z,94527.00
2023-05-05T14:29:07.097Z,94525.00
2023-05-05T14:30:07.138Z,94523.00
2023-05-05T14:31:07.181Z,94523.00
2023-05-05T14:32:07.262Z,94521.00
2023-05-05T14:33:07.419Z,94523.00
2023-05-05T14:34:07.323Z,94521.00
2023-05-05T14:35:07.515Z,94521.00
2023-05-05T14:36:07.509Z,94517.00
2023-05-05T14:37:07.547Z,94519.00
2023-05-05T14:38:07.613Z,94517.00
2023-05-05T14:39:07.664Z,94517.00
2023-05-05T14:40:07.720Z,94519.00
2023-05-05T14:41:07.690Z,94513.00
2023-05-05T14:42:07.769Z,94515.00
2023-05-05T14:43:07.797Z,94515.00
2023-05-05T14:44:07.863Z,94515.00
2023-05-05T14:45:08.139Z,94513.00
2023-05-05T14:46:07.993Z,94509.00
2023-05-05T14:47:08.009Z,94513.00
2023-05-05T14:48:08.046Z,94513.00
2023-05-05T14:49:08.084Z,94515.00
2023-05-05T14:50:08.168Z,94513.00
2023-05-05T14:51:08.218Z,94511.00
2023-05-05T14:52:08.270Z,94506.00
2023-05-05T14:53:08.329Z,94506.00
2023-05-05T14:54:20.509Z,94504.00
2023-05-05T14:55:09.682Z,94506.00
2023-05-05T14:56:08.364Z,94504.00
2023-05-05T14:57:08.354Z,94506.00
2023-05-05T14:58:08.356Z,94506.00
2023-05-05T14:59:08.338Z,94502.00
2023-05-05T15:00:08.366Z,94504.00
2023-05-05T15:01:08.377Z,94504.00
2023-05-05T15:02:08.310Z,94504.00
2023-05-05T15:03:08.413Z,94502.00
2023-05-05T15:04:08.405Z,94502.00
2023-05-05T15:05:08.750Z,94498.00
2023-05-05T15:06:08.519Z,94500.00
2023-05-05T15:07:08.575Z,94500.00
2023-05-05T15:08:08.672Z,94498.00
2023-05-05T15:09:08.740Z,94496.00
2023-05-05T15:10:08.881Z,94498.00
2023-05-05T15:11:08.864Z,94496.00
2023-05-05T15:12:08.851Z,94496.00
2023-05-05T15:13:08.986Z,94496.00
2023-05-05T15:14:08.985Z,94494.00
2023-05-05T15:15:09.215Z,94498.00
2023-05-05T15:16:09.175Z,94498.00
2023-05-05T15:17:09.136Z,94494.00
2023-05-05T15:18:09.150Z,94498.00
2023-05-05T15:19:09.144Z,94500.00
2023-05-05T15:20:09.186Z,94502.00
2023-05-05T15:21:09.170Z,94496.00
2023-05-05T15:22:09.173Z,94498.00
2023-05-05T15:23:09.198Z,94496.00
2023-05-05T15:24:09.160Z,94496.00
2023-05-05T15:25:09.351Z,94494.00
2023-05-05T15:26:09.160Z,94496.00
2023-05-05T15:27:09.122Z,94494.00
2023-05-05T15:28:09.201Z,94494.00
2023-05-05T15:29:09.189Z,94494.00
2023-05-05T15:30:09.132Z,94490.00
2023-05-05T15:31:09.161Z,94490.00
2023-05-05T15:32:09.158Z,94492.00
2023-05-05T15:33:09.155Z,94488.00
2023-05-05T15:34:09.157Z,94488.00
2023-05-05T15:35:09.361Z,94486.00
2023-05-05T15:36:09.201Z,94484.00
2023-05-05T15:37:09.193Z,94484.00
2023-05-05T15:38:09.951Z,94484.00
2023-05-05T15:39:09.357Z,94486.00
2023-05-05T15:40:09.267Z,94484.00
2023-05-05T15:41:09.213Z,94480.00
2023-05-05T15:42:09.226Z,94482.00
2023-05-05T15:43:09.346Z,94478.00
2023-05-05T15:44:09.241Z,94480.00
2023-05-05T15:45:09.416Z,94480.00
2023-05-05T15:46:09.288Z,94478.00
2023-05-05T15:47:09.412Z,94476.00
2023-05-05T15:48:09.311Z,94474.00
2023-05-05T15:49:09.398Z,94474.00
2023-05-05T15:50:09.378Z,94474.00
2023-05-05T15:51:09.389Z,94474.00
2023-05-05T15:52:09.405Z,94474.00
2023-05-05T15:53:09.427Z,94474.00
2023-05-05T15:54:09.441Z,94472.00
2023-05-05T15:55:09.621Z,94470.00
2023-05-05T15:56:09.534Z,94472.00
2023-05-05T15:57:09.529Z,94466.00
2023-05-05T15:58:09.606Z,94466.00
2023-05-05T15:59:09.534Z,94464.00
2023-05-05T16:00:09.588Z,94470.00
2023-05-05T16:01:09.722Z,94466.00
2023-05-05T16:02:09.678Z,94466.00
2023-05-05T16:03:09.748Z,94466.00
2023-05-05T16:04:09.708Z,94464.00
2023-05-05T16:05:10.023Z,94466.00
2023-05-05T16:06:09.787Z,94466.00
2023-05-05T16:07:09.882Z,94468.00
2023-05-05T16:08:09.916Z,94466.00
2023-05-05T16:09:09.914Z,94470.00
2023-05-05T16:10:09.967Z,94468.00
2023-05-05T16:11:10.004Z,94468.00
2023-05-05T16:12:10.032Z,94470.00
2023-05-05T16:13:10.153Z,94470.00
2023-05-05T16:14:10.174Z,94474.00
2023-05-05T16:15:10.678Z,94470.00
2023-05-05T16:16:10.209Z,94472.00
2023-05-05T16:17:10.286Z,94476.00
2023-05-05T16:18:10.327Z,94472.00
2023-05-05T16:19:10.333Z,94472.00
2023-05-05T16:20:10.473Z,94474.00
2023-05-05T16:21:10.627Z,94474.00
2023-05-05T16:22:10.501Z,94472.00
2023-05-05T16:23:10.588Z,94472.00
2023-05-05T16:24:10.558Z,94470.00
2023-05-05T16:25:10.850Z,94474.00
2023-05-05T16:26:10.708Z,94472.00
2023-05-05T16:27:10.804Z,94472.00
2023-05-05T16:28:10.866Z,94474.00
2023-05-05T16:29:10.924Z,94472.00
2023-05-05T16:30:10.993Z,94472.00
2023-05-05T16:31:11.216Z,94474.00
2023-05-05T16:32:11.103Z,94472.00
2023-05-05T16:33:11.200Z,94474.00
2023-05-05T16:34:11.222Z,94474.00
2023-05-05T16:35:11.249Z,94472.00
2023-05-05T16:36:11.261Z,94474.00
2023-05-05T16:37:11.327Z,94470.00
2023-05-05T16:38:11.299Z,94472.00
2023-05-05T16:39:11.351Z,94470.00
2023-05-05T16:40:11.354Z,94468.00
2023-05-05T16:41:11.426Z,94468.00
2023-05-05T16:42:11.417Z,94466.00
2023-05-05T16:43:11.422Z,94466.00
2023-05-05T16:44:11.597Z,94468.00
2023-05-05T16:45:11.570Z,94464.00
2023-05-05T16:46:11.441Z,94466.00
2023-05-05T16:47:11.508Z,94464.00
2023-05-05T16:48:11.445Z,94466.00
2023-05-05T16:49:11.453Z,94460.00
2023-05-05T16:50:11.478Z,94464.00
2023-05-05T16:51:11.401Z,94466.00
2023-05-05T16:52:11.420Z,94466.00
2023-05-05T16:53:11.450Z,94466.00
2023-05-05T16:54:11.500Z,94466.00
2023-05-05T16:55:11.655Z,94466.00
2023-05-05T16:56:11.461Z,94466.00
2023-05-05T16:57:11.443Z,94464.00
2023-05-05T16:58:11.449Z,94464.00
2023-05-05T16:59:11.486Z,94466.00
2023-05-05T17:00:11.494Z,94468.00
2023-05-05T17:01:11.574Z,94468.00
2023-05-05T17:02:11.508Z,94466.00
2023-05-05T17:03:11.572Z,94466.00
2023-05-05T17:04:11.534Z,94468.00
2023-05-05T17:05:11.759Z,94468.00
2023-05-05T17:06:11.561Z,94474.00
2023-05-05T17:07:11.570Z,94474.00
2023-05-05T17:08:11.577Z,94474.00
2023-05-05T17:09:11.583Z,94474.00
2023-05-05T17:10:11.593Z,94470.00
2023-05-05T17:11:11.916Z,94474.00
2023-05-05T17:12:11.701Z,94474.00
2023-05-05T17:13:11.783Z,94476.00
2023-05-05T17:14:11.750Z,94478.00
2023-05-05T17:15:11.817Z,94478.00
2023-05-05T17:16:11.776Z,94480.00
2023-05-05T17:17:11.825Z,94478.00
2023-05-05T17:18:11.785Z,94480.00
2023-05-05T17:19:11.914Z,94480.00
2023-05-05T17:20:11.866Z,94478.00
2023-05-05T17:21:11.878Z,94480.00
2023-05-05T17:22:11.892Z,94480.00
2023-05-05T17:23:11.891Z,94480.00
2023-05-05T17:24:11.949Z,94482.00
2023-05-05T17:25:12.086Z,94482.00
2023-05-05T17:26:12.000Z,94480.00
2023-05-05T17:27:12.044Z,94480.00
2023-05-05T17:28:12.059Z,94480.00
2023-05-05T17:29:13.029Z,94476.00
2023-05-05T17:30:12.085Z,94478.00
2023-05-05T17:31:12.117Z,94476.00
2023-05-05T17:32:12.186Z,94478.00
2023-05-05T17:33:12.167Z,94476.00
2023-05-05T17:34:12.195Z,94476.00
2023-05-05T17:35:12.246Z,94480.00
2023-05-05T17:36:12.211Z,94476.00
2023-05-05T17:37:12.240Z,94480.00
2023-05-05T17:38:12.261Z,94478.00
2023-05-05T17:39:12.291Z,94482.00
2023-05-05T17:40:12.348Z,94482.00
2023-05-05T17:41:12.359Z,94484.00
2023-05-05T17:42:12.433Z,94486.00
2023-05-05T17:43:12.429Z,94486.00
2023-05-05T17:44:12.444Z,94486.00
2023-05-05T17:45:12.742Z,94486.00
2023-05-05T17:46:12.506Z,94482.00
2023-05-05T17:47:12.531Z,94482.00
2023-05-05T17:48:12.563Z,94482.00
2023-05-05T17:49:12.608Z,94482.00
2023-05-05T17:50:12.610Z,94480.00
2023-05-05T17:51:12.708Z,94478.00
2023-05-05T17:52:12.684Z,94478.00
2023-05-05T17:53:12.749Z,94480.00
2023-05-05T17:54:12.744Z,94480.00
2023-05-05T17:55:12.911Z,94480.00
2023-05-05T17:56:12.822Z,94482.00
2023-05-05T17:57:12.895Z,94480.00
2023-05-05T17:58:12.937Z,94482.00
2023-05-05T17:59:12.945Z,94484.00
2023-05-05T18:00:12.989Z,94486.00
2023-05-05T18:01:13.022Z,94490.00
2023-05-05T18:02:13.102Z,94494.00
2023-05-05T18:03:13.163Z,94494.00
2023-05-05T18:04:13.112Z,94492.00
2023-05-05T18:05:13.217Z,94490.00
2023-05-05T18:06:13.237Z,94492.00
2023-05-05T18:07:13.408Z,94492.00
2023-05-05T18:08:13.317Z,94490.00
2023-05-05T18:09:13.409Z,94490.00
2023-05-05T18:10:13.432Z,94492.00
2023-05-05T18:11:13.489Z,94492.00
2023-05-05T18:12:13.508Z,94492.00
2023-05-05T18:13:13.811Z,94496.00
2023-05-05T18:14:13.658Z,94498.00
2023-05-05T18:15:13.674Z,94502.00
2023-05-05T18:16:13.782Z,94504.00
2023-05-05T18:17:13.753Z,94504.00
2023-05-05T18:18:13.889Z,94507.00
2023-05-05T18:19:13.874Z,94509.00
2023-05-05T18:20:13.964Z,94513.00
2023-05-05T18:21:14.044Z,94513.00
2023-05-05T18:22:14.039Z,94515.00
2023-05-05T18:23:14.162Z,94517.00
2023-05-05T18:25:14.165Z,94517.00
2023-05-05T18:26:14.149Z,94517.00
2023-05-05T18:27:14.126Z,94521.00
2023-05-05T18:28:14.142Z,94523.00
2023-05-05T18:29:14.177Z,94525.00
2023-05-05T18:30:14.118Z,94533.00
2023-05-05T18:31:14.292Z,94535.00
2023-05-05T18:32:14.114Z,94539.00
2023-05-05T18:33:14.092Z,94541.00
2023-05-05T18:34:14.112Z,94543.00
2023-05-05T18:35:14.115Z,94547.00
2023-05-05T18:36:14.091Z,94547.00
2023-05-05T18:37:14.093Z,94551.00
2023-05-05T18:38:14.090Z,94555.00
2023-05-05T18:39:14.088Z,94557.00
2023-05-05T18:40:14.058Z,94558.00
2023-05-05T18:41:14.076Z,94562.00
2023-05-05T18:42:14.068Z,94562.00
2023-05-05T18:43:14.097Z,94562.00
2023-05-05T18:44:14.200Z,94566.00
2023-05-05T18:45:14.282Z,94572.00
2023-05-05T18:46:14.352Z,94572.00
2023-05-05T18:47:14.405Z,94578.00
2023-05-05T18:48:14.462Z,94580.00
2023-05-05T18:49:14.525Z,94584.00
2023-05-05T18:50:14.550Z,94584.00
2023-05-05T18:51:14.595Z,94590.00
2023-05-05T18:52:14.652Z,94588.00
2023-05-05T18:53:14.658Z,94592.00
2023-05-05T18:54:14.697Z,94596.00
2023-05-05T18:55:14.804Z,94594.00
2023-05-05T18:56:14.740Z,94602.00
2023-05-05T18:57:14.802Z,94602.00
2023-05-05T18:58:14.800Z,94604.00
2023-05-05T18:59:14.816Z,94602.00
2023-05-05T19:00:14.840Z,94604.00
2023-05-05T19:01:14.864Z,94606.00
2023-05-05T19:02:14.900Z,94608.00
2023-05-05T19:03:14.889Z,94604.00
2023-05-05T19:04:29.533Z,94608.00
2023-05-05T19:05:15.909Z,94608.00
2023-05-05T19:06:14.876Z,94606.00
2023-05-05T19:07:27.638Z,94608.00
2023-05-05T19:08:15.876Z,94606.00
2023-05-05T19:09:14.867Z,94608.00
2023-05-05T19:10:14.839Z,94608.00
2023-05-05T19:11:14.844Z,94609.00
2023-05-05T19:12:14.814Z,94619.00
2023-05-05T19:13:14.868Z,94621.00
2023-05-05T19:14:14.873Z,94623.00
2023-05-05T19:15:14.790Z,94625.00
2023-05-05T19:16:14.834Z,94623.00
2023-05-05T19:17:14.824Z,94627.00
2023-05-05T19:18:14.814Z,94627.00
2023-05-05T19:19:14.795Z,94629.00
2023-05-05T19:20:14.770Z,94631.00
2023-05-05T19:21:14.803Z,94637.00
2023-05-05T19:22:14.783Z,94637.00
2023-05-05T19:23:14.750Z,94641.00
2023-05-05T19:24:14.790Z,94645.00
2023-05-05T19:25:14.722Z,94651.00
2023-05-05T19:26:14.775Z,94647.00
2023-05-05T19:27:16.601Z,94649.00
2023-05-05T19:28:14.714Z,94655.00
2023-05-05T19:29:14.718Z,94657.00
2023-05-05T19:30:14.725Z,94659.00
2023-05-05T19:31:14.700Z,94664.00
2023-05-05T19:32:14.756Z,94668.00
2023-05-05T19:33:14.702Z,94674.00
2023-05-05T19:34:14.725Z,94682.00
2023-05-05T19:35:14.728Z,94686.00
2023-05-05T19:36:14.769Z,94690.00
2023-05-05T19:37:14.813Z,94690.00
2023-05-05T19:38:14.795Z,94688.00
2023-05-05T19:39:15.983Z,94692.00
2023-05-05T19:40:14.842Z,94700.00
2023-05-05T19:41:14.819Z,94706.00
2023-05-05T19:42:14.821Z,94723.00
2023-05-05T19:43:14.914Z,94727.00
2023-05-05T19:44:14.877Z,94731.00
2023-05-05T19:45:14.903Z,94729.00
2023-05-05T19:46:14.930Z,94731.00
2023-05-05T19:47:14.888Z,94747.00
2023-05-05T19:48:14.927Z,94766.00
2023-05-05T19:49:14.932Z,94776.00
2023-05-05T19:50:14.962Z,94780.00
2023-05-05T19:51:14.970Z,94778.00
2023-05-05T19:52:15.010Z,94790.00
2023-05-05T19:53:14.993Z,94798.00
2023-05-05T19:54:15.029Z,94800.00
2023-05-05T19:55:15.084Z,94811.00
2023-05-05T19:56:15.024Z,94825.00
2023-05-05T19:57:15.095Z,94827.00
2023-05-05T19:58:15.076Z,94835.00
2023-05-05T19:59:15.182Z,94843.00
2023-05-05T20:00:15.184Z,94847.00
2023-05-05T20:01:15.225Z,94847.00
2023-05-05T20:02:15.183Z,94857.00
2023-05-05T20:03:15.474Z,94861.00
2023-05-05T20:04:15.234Z,94861.00
2023-05-05T20:05:15.246Z,94862.00
2023-05-05T20:06:15.277Z,94862.00
2023-05-05T20:07:15.346Z,94862.00
2023-05-05T20:08:15.360Z,94890.00
2023-05-05T20:09:15.354Z,94892.00
2023-05-05T20:10:15.388Z,94890.00
2023-05-05T20:11:15.407Z,94888.00
2023-05-05T20:12:15.458Z,94906.00
2023-05-05T20:13:15.507Z,94912.00
2023-05-05T20:14:15.523Z,94912.00
2023-05-05T20:15:15.598Z,94919.00
2023-05-05T20:16:15.549Z,94925.00
2023-05-05T20:17:15.576Z,94919.00
2023-05-05T20:18:15.692Z,94927.00
2023-05-05T20:19:15.667Z,94941.00
2023-05-05T20:20:15.864Z,94939.00
2023-05-05T20:21:15.740Z,94947.00
2023-05-05T20:22:15.720Z,94953.00
2023-05-05T20:23:15.813Z,94964.00
2023-05-05T20:24:15.803Z,94970.00
2023-05-05T20:25:15.872Z,94968.00
2023-05-05T20:26:15.892Z,94980.00
2023-05-05T20:27:15.887Z,94980.00
2023-05-05T20:28:15.950Z,94986.00
2023-05-05T20:29:16.019Z,94986.00
2023-05-05T20:30:16.025Z,94984.00
2023-05-05T20:31:16.163Z,94986.00
2023-05-05T20:32:16.081Z,94990.00
2023-05-05T20:33:16.120Z,94992.00
2023-05-05T20:34:16.147Z,94994.00
2023-05-05T20:35:16.171Z,94986.00
2023-05-05T20:36:16.264Z,94986.00
2023-05-05T20:37:16.330Z,94992.00
2023-05-05T20:38:16.294Z,94992.00
2023-05-05T20:39:16.306Z,94994.00
2023-05-05T20:40:16.389Z,94998.00
2023-05-05T20:41:16.393Z,95000.00
2023-05-05T20:42:16.446Z,95002.00
2023-05-05T20:43:16.639Z,95004.00
2023-05-05T20:44:16.539Z,95000.00
2023-05-05T20:45:16.560Z,95002.00
2023-05-05T20:46:16.668Z,95008.00
2023-05-05T20:47:16.695Z,95012.00
2023-05-05T20:48:16.747Z,95006.00
2023-05-05T20:49:16.764Z,95008.00
2023-05-05T20:50:16.804Z,95002.00
2023-05-05T20:51:16.872Z,95010.00
2023-05-05T20:52:16.895Z,95012.00
2023-05-05T20:53:16.916Z,95013.00
2023-05-05T20:54:17.027Z,95013.00
2023-05-05T20:55:17.048Z,95013.00
2023-05-05T20:56:17.066Z,95015.00
2023-05-05T20:57:17.116Z,95015.00
2023-05-05T20:58:17.163Z,95015.00
2023-05-05T20:59:17.211Z,95015.00
2023-05-05T21:00:17.277Z,95019.00
2023-05-05T21:01:17.317Z,95025.00
2023-05-05T21:02:17.424Z,95023.00
2023-05-05T21:03:17.594Z,95023.00
2023-05-05T21:04:17.465Z,95023.00
2023-05-05T21:05:17.571Z,95023.00
2023-05-05T21:06:17.591Z,95023.00
2023-05-05T21:07:17.636Z,95021.00
2023-05-05T21:08:17.700Z,95023.00
2023-05-05T21:09:17.752Z,95027.00
2023-05-05T21:10:17.804Z,95029.00
2023-05-05T21:11:17.863Z,95031.00
2023-05-05T21:12:17.878Z,95031.00
2023-05-05T21:13:18.017Z,95029.00
2023-05-05T21:14:18.027Z,95023.00
2023-05-05T21:15:18.054Z,95023.00
2023-05-05T21:16:18.139Z,95021.00
2023-05-05T21:17:18.162Z,95021.00
2023-05-05T21:18:18.225Z,95019.00
2023-05-05T21:19:18.344Z,95021.00
2023-05-05T21:20:18.335Z,95019.00
2023-05-05T21:21:18.401Z,95021.00
2023-05-05T21:22:18.509Z,95023.00
2023-05-05T21:23:18.535Z,95023.00
2023-05-05T21:24:18.620Z,95021.00
2023-05-05T21:25:18.661Z,95025.00
2023-05-05T21:26:18.741Z,95023.00
2023-05-05T21:27:18.794Z,95021.00
2023-05-05T21:28:18.855Z,95023.00
2023-05-05T21:29:18.913Z,95025.00
2023-05-05T21:30:18.973Z,95027.00
2023-05-05T21:31:22.197Z,95033.00
2023-05-05T21:32:19.118Z,95029.00
2023-05-05T21:33:19.011Z,95031.00
2023-05-05T21:34:19.001Z,95033.00
2023-05-05T21:35:19.048Z,95037.00
2023-05-05T21:36:19.050Z,95039.00
2023-05-05T21:37:18.973Z,95037.00
2023-05-05T21:38:18.972Z,95039.00
2023-05-05T21:39:18.982Z,95039.00
2023-05-05T21:40:18.994Z,95037.00
2023-05-05T21:41:19.001Z,95037.00
2023-05-05T21:42:18.958Z,95033.00
2023-05-05T21:43:18.952Z,95029.00
2023-05-05T21:44:18.961Z,95029.00
2023-05-05T21:45:18.968Z,95029.00
2023-05-05T21:46:18.959Z,95029.00
2023-05-05T21:47:18.955Z,95025.00
2023-05-05T21:48:18.935Z,95023.00
2023-05-05T21:49:18.923Z,95023.00
2023-05-05T21:50:18.902Z,95019.00
2023-05-05T21:51:18.908Z,95021.00
2023-05-05T21:52:18.914Z,95019.00
2023-05-05T21:53:18.923Z,95023.00
2023-05-05T21:54:18.885Z,95021.00
2023-05-05T21:55:18.934Z,95025.00
2023-05-05T21:56:18.878Z,95025.00
2023-05-05T21:57:18.850Z,95025.00
2023-05-05T21:58:18.856Z,95025.00
2023-05-05T21:59:19.002Z,95031.00
2023-05-05T22:00:19.137Z,95031.00
2023-05-05T22:01:18.845Z,95035.00
2023-05-05T22:02:18.988Z,95039.00
2023-05-05T22:03:18.887Z,95041.00
2023-05-05T22:04:18.825Z,95043.00
2023-05-05T22:05:18.855Z,95043.00
2023-05-05T22:06:18.798Z,95045.00
2023-05-05T22:07:18.829Z,95051.00
2023-05-05T22:08:18.782Z,95051.00